sensor_id;sensor_type;location;lat;lon;timestamp;temperature;humidity
28171;DHT22;15458;53.346;-1.688;2023-05-10T00:01:21;10.10;99.90
28171;DHT22;15458;53.346;-1.688;2023-05-10T00:03:47;10.10;99.90
28171;DHT22;15458;53.346;-1.688;2023-05-10T00:06:12;10.10;99.90
28171;DHT22;15458;53.346;-1.688;2023-05-10T00:08:38;10.10;99.90
28171;DHT22;15458;53.346;-1.688;2023-05-10T00:11:04;10.10;99.90
28171;DHT22;15458;53.346;-1.688;2023-05-10T00:13:29;10.10;99.90
28171;DHT22;15458;53.346;-1.688;2023-05-10T00:15:55;10.10;99.90
28171;DHT22;15458;53.346;-1.688;2023-05-10T00:18:21;10.00;99.90
28171;DHT22;15458;53.346;-1.688;2023-05-10T00:20:46;10.00;99.90
28171;DHT22;15458;53.346;-1.688;2023-05-10T00:23:12;10.10;99.90
28171;DHT22;15458;53.346;-1.688;2023-05-10T00:25:38;10.00;99.90
28171;DHT22;15458;53.346;-1.688;2023-05-10T00:28:04;10.00;99.90
28171;DHT22;15458;53.346;-1.688;2023-05-10T00:30:29;10.00;99.90
28171;DHT22;15458;53.346;-1.688;2023-05-10T00:32:55;9.90;99.90
28171;DHT22;15458;53.346;-1.688;2023-05-10T00:35:20;9.90;99.90
28171;DHT22;15458;53.346;-1.688;2023-05-10T00:37:47;9.90;99.90
28171;DHT22;15458;53.346;-1.688;2023-05-10T00:40:13;9.90;99.90
28171;DHT22;15458;53.346;-1.688;2023-05-10T00:42:38;9.80;99.90
28171;DHT22;15458;53.346;-1.688;2023-05-10T00:45:04;9.80;99.90
28171;DHT22;15458;53.346;-1.688;2023-05-10T00:47:31;9.80;99.90
28171;DHT22;15458;53.346;-1.688;2023-05-10T00:49:57;9.80;99.90
28171;DHT22;15458;53.346;-1.688;2023-05-10T00:52:23;9.80;99.90
28171;DHT22;15458;53.346;-1.688;2023-05-10T00:54:51;9.80;99.90
28171;DHT22;15458;53.346;-1.688;2023-05-10T00:57:18;9.80;99.90
28171;DHT22;15458;53.346;-1.688;2023-05-10T00:59:44;9.80;99.90
28171;DHT22;15458;53.346;-1.688;2023-05-10T01:02:10;9.80;99.90
28171;DHT22;15458;53.346;-1.688;2023-05-10T01:04:36;9.80;99.90
28171;DHT22;15458;53.346;-1.688;2023-05-10T01:07:03;9.70;99.90
28171;DHT22;15458;53.346;-1.688;2023-05-10T01:09:28;9.60;99.90
28171;DHT22;15458;53.346;-1.688;2023-05-10T01:11:54;9.60;99.90
28171;DHT22;15458;53.346;-1.688;2023-05-10T01:14:21;9.50;99.90
28171;DHT22;15458;53.346;-1.688;2023-05-10T01:16:49;9.40;99.90
28171;DHT22;15458;53.346;-1.688;2023-05-10T01:19:26;9.40;99.90
28171;DHT22;15458;53.346;-1.688;2023-05-10T01:22:09;9.30;99.90
28171;DHT22;15458;53.346;-1.688;2023-05-10T01:36:22;9.10;99.90
28171;DHT22;15458;53.346;-1.688;2023-05-10T01:39:03;9.10;99.90
28171;DHT22;15458;53.346;-1.688;2023-05-10T01:46:51;9.00;99.90
28171;DHT22;15458;53.346;-1.688;2023-05-10T01:49:25;8.90;99.90
28171;DHT22;15458;53.346;-1.688;2023-05-10T01:51:54;8.90;99.90
28171;DHT22;15458;53.346;-1.688;2023-05-10T01:54:23;8.80;99.90
28171;DHT22;15458;53.346;-1.688;2023-05-10T01:57:03;8.80;99.90
28171;DHT22;15458;53.346;-1.688;2023-05-10T01:59:33;8.80;99.90
28171;DHT22;15458;53.346;-1.688;2023-05-10T02:02:06;8.80;99.90
28171;DHT22;15458;53.346;-1.688;2023-05-10T02:04:34;8.70;99.90
28171;DHT22;15458;53.346;-1.688;2023-05-10T02:07:00;8.60;99.90
28171;DHT22;15458;53.346;-1.688;2023-05-10T02:09:28;8.50;99.90
28171;DHT22;15458;53.346;-1.688;2023-05-10T02:11:55;8.50;99.90
28171;DHT22;15458;53.346;-1.688;2023-05-10T02:14:24;8.50;99.90
28171;DHT22;15458;53.346;-1.688;2023-05-10T02:16:52;8.50;99.90
28171;DHT22;15458;53.346;-1.688;2023-05-10T02:19:19;8.40;99.90
28171;DHT22;15458;53.346;-1.688;2023-05-10T02:21:46;8.40;99.90
28171;DHT22;15458;53.346;-1.688;2023-05-10T02:24:12;8.40;99.90
28171;DHT22;15458;53.346;-1.688;2023-05-10T02:26:40;8.40;99.90
28171;DHT22;15458;53.346;-1.688;2023-05-10T02:29:06;8.40;99.90
28171;DHT22;15458;53.346;-1.688;2023-05-10T02:31:33;8.40;99.90
28171;DHT22;15458;53.346;-1.688;2023-05-10T02:34:01;8.40;99.90
28171;DHT22;15458;53.346;-1.688;2023-05-10T02:36:27;8.40;99.90
28171;DHT22;15458;53.346;-1.688;2023-05-10T02:38:54;8.40;99.90
28171;DHT22;15458;53.346;-1.688;2023-05-10T02:41:21;8.40;99.90
28171;DHT22;15458;53.346;-1.688;2023-05-10T02:43:50;8.30;99.90
28171;DHT22;15458;53.346;-1.688;2023-05-10T02:46:17;8.30;99.90
28171;DHT22;15458;53.346;-1.688;2023-05-10T02:48:44;8.20;99.90
28171;DHT22;15458;53.346;-1.688;2023-05-10T02:51:12;8.20;99.90
28171;DHT22;15458;53.346;-1.688;2023-05-10T02:53:41;8.10;99.90
28171;DHT22;15458;53.346;-1.688;2023-05-10T02:56:14;8.10;99.90
28171;DHT22;15458;53.346;-1.688;2023-05-10T02:58:40;8.00;99.90
28171;DHT22;15458;53.346;-1.688;2023-05-10T03:01:06;8.00;99.90
28171;DHT22;15458;53.346;-1.688;2023-05-10T03:03:33;8.00;99.90
28171;DHT22;15458;53.346;-1.688;2023-05-10T03:05:58;8.00;99.90
28171;DHT22;15458;53.346;-1.688;2023-05-10T03:08:24;8.00;99.90
28171;DHT22;15458;53.346;-1.688;2023-05-10T03:13:31;8.10;99.90
28171;DHT22;15458;53.346;-1.688;2023-05-10T03:16:10;8.10;99.90
28171;DHT22;15458;53.346;-1.688;2023-05-10T03:18:44;8.20;99.90
28171;DHT22;15458;53.346;-1.688;2023-05-10T03:21:11;8.10;99.90
28171;DHT22;15458;53.346;-1.688;2023-05-10T03:23:50;8.10;99.90
28171;DHT22;15458;53.346;-1.688;2023-05-10T03:26:27;8.10;99.90
28171;DHT22;15458;53.346;-1.688;2023-05-10T03:28:53;8.10;99.90
28171;DHT22;15458;53.346;-1.688;2023-05-10T03:31:19;8.00;99.90
28171;DHT22;15458;53.346;-1.688;2023-05-10T03:33:48;8.00;99.90
28171;DHT22;15458;53.346;-1.688;2023-05-10T03:36:14;7.90;99.90
28171;DHT22;15458;53.346;-1.688;2023-05-10T03:38:39;7.90;99.90
28171;DHT22;15458;53.346;-1.688;2023-05-10T03:41:05;7.90;99.90
28171;DHT22;15458;53.346;-1.688;2023-05-10T03:43:31;7.80;99.90
28171;DHT22;15458;53.346;-1.688;2023-05-10T03:45:56;7.80;99.90
28171;DHT22;15458;53.346;-1.688;2023-05-10T03:48:22;7.80;99.90
28171;DHT22;15458;53.346;-1.688;2023-05-10T03:50:47;7.90;99.90
28171;DHT22;15458;53.346;-1.688;2023-05-10T03:53:15;7.90;99.90
28171;DHT22;15458;53.346;-1.688;2023-05-10T03:55:40;7.90;99.90
28171;DHT22;15458;53.346;-1.688;2023-05-10T03:58:06;7.90;99.90
28171;DHT22;15458;53.346;-1.688;2023-05-10T04:00:32;7.90;99.90
28171;DHT22;15458;53.346;-1.688;2023-05-10T04:02:58;7.90;99.90
28171;DHT22;15458;53.346;-1.688;2023-05-10T04:05:23;8.00;99.90
28171;DHT22;15458;53.346;-1.688;2023-05-10T04:07:49;8.00;99.90
28171;DHT22;15458;53.346;-1.688;2023-05-10T04:10:15;8.00;99.90
28171;DHT22;15458;53.346;-1.688;2023-05-10T04:12:41;8.10;99.90
28171;DHT22;15458;53.346;-1.688;2023-05-10T04:15:07;8.20;99.90
28171;DHT22;15458;53.346;-1.688;2023-05-10T04:17:33;8.10;99.90
28171;DHT22;15458;53.346;-1.688;2023-05-10T04:19:59;8.10;99.90
28171;DHT22;15458;53.346;-1.688;2023-05-10T04:22:25;8.10;99.90
28171;DHT22;15458;53.346;-1.688;2023-05-10T04:24:50;8.10;99.90
28171;DHT22;15458;53.346;-1.688;2023-05-10T04:27:16;8.20;99.90
28171;DHT22;15458;53.346;-1.688;2023-05-10T04:29:42;8.20;99.90
28171;DHT22;15458;53.346;-1.688;2023-05-10T04:32:08;8.20;99.90
28171;DHT22;15458;53.346;-1.688;2023-05-10T04:34:35;8.20;99.90
28171;DHT22;15458;53.346;-1.688;2023-05-10T04:37:01;8.20;99.90
28171;DHT22;15458;53.346;-1.688;2023-05-10T04:39:27;8.30;99.90
28171;DHT22;15458;53.346;-1.688;2023-05-10T04:41:52;8.30;99.90
28171;DHT22;15458;53.346;-1.688;2023-05-10T04:44:18;8.30;99.90
28171;DHT22;15458;53.346;-1.688;2023-05-10T04:46:43;8.30;99.90
28171;DHT22;15458;53.346;-1.688;2023-05-10T04:49:09;8.30;99.90
28171;DHT22;15458;53.346;-1.688;2023-05-10T04:51:35;8.20;99.90
28171;DHT22;15458;53.346;-1.688;2023-05-10T04:54:00;8.30;99.90
28171;DHT22;15458;53.346;-1.688;2023-05-10T04:56:26;8.30;99.90
28171;DHT22;15458;53.346;-1.688;2023-05-10T04:58:51;8.20;99.90
28171;DHT22;15458;53.346;-1.688;2023-05-10T05:01:17;8.20;99.90
28171;DHT22;15458;53.346;-1.688;2023-05-10T05:03:43;8.20;99.90
28171;DHT22;15458;53.346;-1.688;2023-05-10T05:06:08;8.10;99.90
28171;DHT22;15458;53.346;-1.688;2023-05-10T05:08:34;8.10;99.90
28171;DHT22;15458;53.346;-1.688;2023-05-10T05:10:59;8.10;99.90
28171;DHT22;15458;53.346;-1.688;2023-05-10T05:13:25;8.10;99.90
28171;DHT22;15458;53.346;-1.688;2023-05-10T05:15:51;8.10;99.90
28171;DHT22;15458;53.346;-1.688;2023-05-10T05:18:16;8.10;99.90
28171;DHT22;15458;53.346;-1.688;2023-05-10T05:20:42;8.10;99.90
28171;DHT22;15458;53.346;-1.688;2023-05-10T05:23:08;8.10;99.90
28171;DHT22;15458;53.346;-1.688;2023-05-10T05:25:33;8.10;99.90
28171;DHT22;15458;53.346;-1.688;2023-05-10T05:27:59;8.20;99.90
28171;DHT22;15458;53.346;-1.688;2023-05-10T05:30:25;8.20;99.90
28171;DHT22;15458;53.346;-1.688;2023-05-10T05:32:50;8.20;99.90
28171;DHT22;15458;53.346;-1.688;2023-05-10T05:35:16;8.20;99.90
28171;DHT22;15458;53.346;-1.688;2023-05-10T05:37:42;8.20;99.90
28171;DHT22;15458;53.346;-1.688;2023-05-10T05:40:08;8.20;99.90
28171;DHT22;15458;53.346;-1.688;2023-05-10T05:42:33;8.20;99.90
28171;DHT22;15458;53.346;-1.688;2023-05-10T05:44:59;8.30;99.90
28171;DHT22;15458;53.346;-1.688;2023-05-10T05:47:25;8.30;99.90
28171;DHT22;15458;53.346;-1.688;2023-05-10T05:49:50;8.30;99.90
28171;DHT22;15458;53.346;-1.688;2023-05-10T05:52:16;8.40;99.90
28171;DHT22;15458;53.346;-1.688;2023-05-10T05:54:42;8.40;99.90
28171;DHT22;15458;53.346;-1.688;2023-05-10T05:57:07;8.40;99.90
28171;DHT22;15458;53.346;-1.688;2023-05-10T05:59:34;8.50;99.90
28171;DHT22;15458;53.346;-1.688;2023-05-10T06:01:59;8.50;99.90
28171;DHT22;15458;53.346;-1.688;2023-05-10T06:04:26;8.60;99.90
28171;DHT22;15458;53.346;-1.688;2023-05-10T06:06:51;8.60;99.90
28171;DHT22;15458;53.346;-1.688;2023-05-10T06:09:17;8.70;99.90
28171;DHT22;15458;53.346;-1.688;2023-05-10T06:11:42;8.80;99.90
28171;DHT22;15458;53.346;-1.688;2023-05-10T06:14:08;8.80;99.90
28171;DHT22;15458;53.346;-1.688;2023-05-10T06:16:34;8.90;99.90
28171;DHT22;15458;53.346;-1.688;2023-05-10T06:19:00;8.90;99.90
28171;DHT22;15458;53.346;-1.688;2023-05-10T06:21:26;9.00;99.90
28171;DHT22;15458;53.346;-1.688;2023-05-10T06:23:52;9.10;99.90
28171;DHT22;15458;53.346;-1.688;2023-05-10T06:26:17;9.10;99.90
28171;DHT22;15458;53.346;-1.688;2023-05-10T06:28:46;9.20;99.90
28171;DHT22;15458;53.346;-1.688;2023-05-10T06:31:11;9.20;99.90
28171;DHT22;15458;53.346;-1.688;2023-05-10T06:33:41;9.30;99.90
28171;DHT22;15458;53.346;-1.688;2023-05-10T06:36:09;9.40;99.90
28171;DHT22;15458;53.346;-1.688;2023-05-10T06:38:35;9.50;99.90
28171;DHT22;15458;53.346;-1.688;2023-05-10T06:41:01;9.60;99.90
28171;DHT22;15458;53.346;-1.688;2023-05-10T06:43:26;9.60;99.90
28171;DHT22;15458;53.346;-1.688;2023-05-10T06:45:54;9.70;99.90
28171;DHT22;15458;53.346;-1.688;2023-05-10T06:48:19;9.80;99.90
28171;DHT22;15458;53.346;-1.688;2023-05-10T06:50:45;9.90;99.90
28171;DHT22;15458;53.346;-1.688;2023-05-10T06:53:11;10.00;99.90
28171;DHT22;15458;53.346;-1.688;2023-05-10T06:55:37;10.10;99.90
28171;DHT22;15458;53.346;-1.688;2023-05-10T06:58:03;10.10;99.90
28171;DHT22;15458;53.346;-1.688;2023-05-10T07:00:28;10.30;99.90
28171;DHT22;15458;53.346;-1.688;2023-05-10T07:02:54;10.40;99.90
28171;DHT22;15458;53.346;-1.688;2023-05-10T07:05:20;10.50;99.90
28171;DHT22;15458;53.346;-1.688;2023-05-10T07:07:46;10.60;99.90
28171;DHT22;15458;53.346;-1.688;2023-05-10T07:10:11;10.80;99.90
28171;DHT22;15458;53.346;-1.688;2023-05-10T07:12:37;10.90;99.90
28171;DHT22;15458;53.346;-1.688;2023-05-10T07:15:05;11.00;99.90
28171;DHT22;15458;53.346;-1.688;2023-05-10T07:17:31;11.20;99.90
28171;DHT22;15458;53.346;-1.688;2023-05-10T07:19:59;11.30;99.90
28171;DHT22;15458;53.346;-1.688;2023-05-10T07:22:27;11.40;99.90
28171;DHT22;15458;53.346;-1.688;2023-05-10T07:24:53;11.50;99.90
28171;DHT22;15458;53.346;-1.688;2023-05-10T07:27:19;11.70;99.90
28171;DHT22;15458;53.346;-1.688;2023-05-10T07:29:44;11.70;99.90
28171;DHT22;15458;53.346;-1.688;2023-05-10T07:32:10;11.80;99.90
28171;DHT22;15458;53.346;-1.688;2023-05-10T07:34:36;11.90;99.90
28171;DHT22;15458;53.346;-1.688;2023-05-10T07:37:01;11.90;99.90
28171;DHT22;15458;53.346;-1.688;2023-05-10T07:39:27;12.00;99.90
28171;DHT22;15458;53.346;-1.688;2023-05-10T07:41:54;12.00;99.90
28171;DHT22;15458;53.346;-1.688;2023-05-10T07:44:20;12.00;99.90
28171;DHT22;15458;53.346;-1.688;2023-05-10T07:46:47;12.10;99.90
28171;DHT22;15458;53.346;-1.688;2023-05-10T07:49:13;12.20;99.90
28171;DHT22;15458;53.346;-1.688;2023-05-10T07:51:39;12.30;99.90
28171;DHT22;15458;53.346;-1.688;2023-05-10T07:54:04;12.30;99.90
28171;DHT22;15458;53.346;-1.688;2023-05-10T07:56:31;12.40;99.90
28171;DHT22;15458;53.346;-1.688;2023-05-10T07:58:58;12.50;99.90
28171;DHT22;15458;53.346;-1.688;2023-05-10T08:01:25;12.60;99.90
28171;DHT22;15458;53.346;-1.688;2023-05-10T08:03:51;12.70;99.90
28171;DHT22;15458;53.346;-1.688;2023-05-10T08:06:18;12.70;99.90
28171;DHT22;15458;53.346;-1.688;2023-05-10T08:08:45;12.80;99.90
28171;DHT22;15458;53.346;-1.688;2023-05-10T08:11:15;12.80;99.90
28171;DHT22;15458;53.346;-1.688;2023-05-10T08:13:41;12.80;99.90
28171;DHT22;15458;53.346;-1.688;2023-05-10T08:16:06;12.90;99.90
28171;DHT22;15458;53.346;-1.688;2023-05-10T08:18:32;13.00;99.90
28171;DHT22;15458;53.346;-1.688;2023-05-10T08:20:58;13.10;99.90
28171;DHT22;15458;53.346;-1.688;2023-05-10T08:23:23;13.20;99.90
28171;DHT22;15458;53.346;-1.688;2023-05-10T08:25:49;13.30;99.90
28171;DHT22;15458;53.346;-1.688;2023-05-10T08:28:15;13.40;99.90
28171;DHT22;15458;53.346;-1.688;2023-05-10T08:30:40;13.60;99.90
28171;DHT22;15458;53.346;-1.688;2023-05-10T08:33:06;13.70;99.90
28171;DHT22;15458;53.346;-1.688;2023-05-10T08:35:31;13.80;99.90
28171;DHT22;15458;53.346;-1.688;2023-05-10T08:37:58;13.90;99.90
28171;DHT22;15458;53.346;-1.688;2023-05-10T08:40:24;14.00;99.90
28171;DHT22;15458;53.346;-1.688;2023-05-10T08:43:28;14.10;99.90
28171;DHT22;15458;53.346;-1.688;2023-05-10T08:45:49;14.20;99.90
28171;DHT22;15458;53.346;-1.688;2023-05-10T08:48:16;14.30;99.90
28171;DHT22;15458;53.346;-1.688;2023-05-10T08:50:46;14.40;99.90
28171;DHT22;15458;53.346;-1.688;2023-05-10T08:53:14;14.40;99.90
28171;DHT22;15458;53.346;-1.688;2023-05-10T08:55:41;14.50;99.90
28171;DHT22;15458;53.346;-1.688;2023-05-10T08:58:08;14.50;99.90
28171;DHT22;15458;53.346;-1.688;2023-05-10T09:00:35;14.60;99.90
28171;DHT22;15458;53.346;-1.688;2023-05-10T09:03:02;14.50;99.90
28171;DHT22;15458;53.346;-1.688;2023-05-10T09:05:28;14.60;99.90
28171;DHT22;15458;53.346;-1.688;2023-05-10T09:07:54;14.50;99.90
28171;DHT22;15458;53.346;-1.688;2023-05-10T09:10:20;14.60;99.90
28171;DHT22;15458;53.346;-1.688;2023-05-10T09:12:48;14.60;99.90
28171;DHT22;15458;53.346;-1.688;2023-05-10T09:15:15;14.60;99.90
28171;DHT22;15458;53.346;-1.688;2023-05-10T09:17:42;14.60;99.90
28171;DHT22;15458;53.346;-1.688;2023-05-10T09:20:09;14.60;99.90
28171;DHT22;15458;53.346;-1.688;2023-05-10T09:22:35;14.60;99.90
28171;DHT22;15458;53.346;-1.688;2023-05-10T09:25:14;14.60;99.90
28171;DHT22;15458;53.346;-1.688;2023-05-10T09:27:43;14.50;99.90
28171;DHT22;15458;53.346;-1.688;2023-05-10T09:30:11;14.50;99.90
28171;DHT22;15458;53.346;-1.688;2023-05-10T09:32:42;14.60;99.90
28171;DHT22;15458;53.346;-1.688;2023-05-10T09:35:10;14.70;99.90
28171;DHT22;15458;53.346;-1.688;2023-05-10T09:37:36;14.90;99.90
28171;DHT22;15458;53.346;-1.688;2023-05-10T09:40:04;15.00;99.90
28171;DHT22;15458;53.346;-1.688;2023-05-10T09:42:31;15.20;99.90
28171;DHT22;15458;53.346;-1.688;2023-05-10T09:45:01;15.30;99.90
28171;DHT22;15458;53.346;-1.688;2023-05-10T09:47:27;15.50;99.90
28171;DHT22;15458;53.346;-1.688;2023-05-10T09:49:53;15.70;99.90
28171;DHT22;15458;53.346;-1.688;2023-05-10T09:52:23;15.80;99.90
28171;DHT22;15458;53.346;-1.688;2023-05-10T09:54:54;15.80;99.90
28171;DHT22;15458;53.346;-1.688;2023-05-10T09:57:21;15.80;99.90
28171;DHT22;15458;53.346;-1.688;2023-05-10T09:59:47;15.70;99.90
28171;DHT22;15458;53.346;-1.688;2023-05-10T10:02:13;15.60;99.90
28171;DHT22;15458;53.346;-1.688;2023-05-10T10:04:40;15.50;99.90
28171;DHT22;15458;53.346;-1.688;2023-05-10T10:07:06;15.60;99.90
28171;DHT22;15458;53.346;-1.688;2023-05-10T10:09:33;15.80;99.90
28171;DHT22;15458;53.346;-1.688;2023-05-10T10:11:59;16.00;99.90
28171;DHT22;15458;53.346;-1.688;2023-05-10T10:14:25;16.30;99.90
28171;DHT22;15458;53.346;-1.688;2023-05-10T10:16:51;16.60;99.90
28171;DHT22;15458;53.346;-1.688;2023-05-10T10:19:21;16.70;99.90
28171;DHT22;15458;53.346;-1.688;2023-05-10T10:21:48;16.80;99.70
28171;DHT22;15458;53.346;-1.688;2023-05-10T10:24:14;16.70;99.10
28171;DHT22;15458;53.346;-1.688;2023-05-10T10:26:40;16.60;98.90
28171;DHT22;15458;53.346;-1.688;2023-05-10T10:29:23;16.50;98.70
28171;DHT22;15458;53.346;-1.688;2023-05-10T10:34:33;16.10;98.80
28171;DHT22;15458;53.346;-1.688;2023-05-10T10:37:04;16.00;99.30
28171;DHT22;15458;53.346;-1.688;2023-05-10T10:39:30;15.90;99.90
28171;DHT22;15458;53.346;-1.688;2023-05-10T10:41:57;15.70;99.90
28171;DHT22;15458;53.346;-1.688;2023-05-10T10:54:53;15.30;99.90
28171;DHT22;15458;53.346;-1.688;2023-05-10T10:57:23;15.40;99.90
28171;DHT22;15458;53.346;-1.688;2023-05-10T10:59:49;15.40;99.90
28171;DHT22;15458;53.346;-1.688;2023-05-10T11:02:43;15.50;99.90
28171;DHT22;15458;53.346;-1.688;2023-05-10T11:07:57;16.00;99.90
28171;DHT22;15458;53.346;-1.688;2023-05-10T11:10:24;16.30;99.90
28171;DHT22;15458;53.346;-1.688;2023-05-10T11:13:05;16.60;99.90
28171;DHT22;15458;53.346;-1.688;2023-05-10T11:15:36;17.10;99.90
28171;DHT22;15458;53.346;-1.688;2023-05-10T11:18:19;17.40;99.90
28171;DHT22;15458;53.346;-1.688;2023-05-10T11:20:50;17.60;99.90
28171;DHT22;15458;53.346;-1.688;2023-05-10T11:23:16;17.70;99.90
28171;DHT22;15458;53.346;-1.688;2023-05-10T11:25:43;17.70;99.90
28171;DHT22;15458;53.346;-1.688;2023-05-10T11:28:10;17.70;99.90
28171;DHT22;15458;53.346;-1.688;2023-05-10T11:30:40;17.60;99.90
28171;DHT22;15458;53.346;-1.688;2023-05-10T11:33:07;17.50;99.90
28171;DHT22;15458;53.346;-1.688;2023-05-10T11:35:39;17.50;99.90
28171;DHT22;15458;53.346;-1.688;2023-05-10T11:38:09;17.40;99.90
28171;DHT22;15458;53.346;-1.688;2023-05-10T11:40:36;17.30;99.90
28171;DHT22;15458;53.346;-1.688;2023-05-10T11:43:03;17.30;99.90
28171;DHT22;15458;53.346;-1.688;2023-05-10T11:45:31;17.20;99.90
28171;DHT22;15458;53.346;-1.688;2023-05-10T11:47:57;17.00;99.90
28171;DHT22;15458;53.346;-1.688;2023-05-10T11:50:23;16.90;99.90
28171;DHT22;15458;53.346;-1.688;2023-05-10T11:52:56;16.90;99.90
28171;DHT22;15458;53.346;-1.688;2023-05-10T11:55:22;16.90;99.90
28171;DHT22;15458;53.346;-1.688;2023-05-10T11:57:53;16.80;99.90
28171;DHT22;15458;53.346;-1.688;2023-05-10T12:00:19;16.70;99.60
28171;DHT22;15458;53.346;-1.688;2023-05-10T12:02:45;16.50;99.10
28171;DHT22;15458;53.346;-1.688;2023-05-10T12:05:11;16.30;98.40
28171;DHT22;15458;53.346;-1.688;2023-05-10T12:07:36;16.20;98.00
28171;DHT22;15458;53.346;-1.688;2023-05-10T12:10:09;16.00;98.10
28171;DHT22;15458;53.346;-1.688;2023-05-10T12:12:43;15.70;99.10
28171;DHT22;15458;53.346;-1.688;2023-05-10T12:15:17;15.60;99.90
28171;DHT22;15458;53.346;-1.688;2023-05-10T12:17:44;15.50;99.90
28171;DHT22;15458;53.346;-1.688;2023-05-10T12:20:21;15.50;99.90
28171;DHT22;15458;53.346;-1.688;2023-05-10T12:22:52;15.60;99.90
28171;DHT22;15458;53.346;-1.688;2023-05-10T12:25:19;15.70;99.90
28171;DHT22;15458;53.346;-1.688;2023-05-10T12:27:53;15.90;99.90
28171;DHT22;15458;53.346;-1.688;2023-05-10T12:30:29;16.00;99.90
28171;DHT22;15458;53.346;-1.688;2023-05-10T12:33:07;16.20;99.90
28171;DHT22;15458;53.346;-1.688;2023-05-10T12:35:42;16.60;99.90
28171;DHT22;15458;53.346;-1.688;2023-05-10T12:38:32;17.00;99.90
28171;DHT22;15458;53.346;-1.688;2023-05-10T12:41:01;17.50;99.90
28171;DHT22;15458;53.346;-1.688;2023-05-10T12:43:27;17.90;99.90
28171;DHT22;15458;53.346;-1.688;2023-05-10T12:45:53;18.00;99.90
28171;DHT22;15458;53.346;-1.688;2023-05-10T12:48:18;18.10;99.90
28171;DHT22;15458;53.346;-1.688;2023-05-10T12:50:45;18.00;99.90
28171;DHT22;15458;53.346;-1.688;2023-05-10T12:53:13;17.70;99.40
28171;DHT22;15458;53.346;-1.688;2023-05-10T12:55:39;17.40;99.40
28171;DHT22;15458;53.346;-1.688;2023-05-10T12:58:05;17.00;98.80
28171;DHT22;15458;53.346;-1.688;2023-05-10T13:00:30;16.50;98.70
28171;DHT22;15458;53.346;-1.688;2023-05-10T13:02:56;16.00;99.90
28171;DHT22;15458;53.346;-1.688;2023-05-10T13:05:22;15.70;99.90
28171;DHT22;15458;53.346;-1.688;2023-05-10T13:07:47;15.40;99.90
28171;DHT22;15458;53.346;-1.688;2023-05-10T13:10:13;15.20;99.90
28171;DHT22;15458;53.346;-1.688;2023-05-10T13:12:39;15.10;99.90
28171;DHT22;15458;53.346;-1.688;2023-05-10T13:15:05;14.90;99.90
28171;DHT22;15458;53.346;-1.688;2023-05-10T13:17:32;14.90;99.90
28171;DHT22;15458;53.346;-1.688;2023-05-10T13:19:57;14.80;99.90
28171;DHT22;15458;53.346;-1.688;2023-05-10T13:22:23;14.80;99.90
28171;DHT22;15458;53.346;-1.688;2023-05-10T13:24:48;14.90;99.90
28171;DHT22;15458;53.346;-1.688;2023-05-10T13:27:14;14.90;99.90
28171;DHT22;15458;53.346;-1.688;2023-05-10T13:29:40;14.90;99.90
28171;DHT22;15458;53.346;-1.688;2023-05-10T13:32:06;14.90;99.90
28171;DHT22;15458;53.346;-1.688;2023-05-10T13:34:32;14.90;99.90
28171;DHT22;15458;53.346;-1.688;2023-05-10T13:36:57;14.90;99.90
28171;DHT22;15458;53.346;-1.688;2023-05-10T13:39:23;14.90;99.90
28171;DHT22;15458;53.346;-1.688;2023-05-10T13:41:49;14.90;99.90
28171;DHT22;15458;53.346;-1.688;2023-05-10T13:44:15;14.90;99.90
28171;DHT22;15458;53.346;-1.688;2023-05-10T13:46:41;15.00;99.90
28171;DHT22;15458;53.346;-1.688;2023-05-10T13:49:10;15.00;99.90
28171;DHT22;15458;53.346;-1.688;2023-05-10T13:51:36;15.10;99.90
28171;DHT22;15458;53.346;-1.688;2023-05-10T13:54:02;15.30;99.90
28171;DHT22;15458;53.346;-1.688;2023-05-10T13:56:28;15.50;99.90
28171;DHT22;15458;53.346;-1.688;2023-05-10T13:58:55;15.80;99.90
28171;DHT22;15458;53.346;-1.688;2023-05-10T14:01:22;16.00;99.90
28171;DHT22;15458;53.346;-1.688;2023-05-10T14:03:47;16.20;99.90
28171;DHT22;15458;53.346;-1.688;2023-05-10T14:06:13;16.30;99.90
28171;DHT22;15458;53.346;-1.688;2023-05-10T14:08:39;16.40;99.90
28171;DHT22;15458;53.346;-1.688;2023-05-10T14:11:05;16.50;99.90
28171;DHT22;15458;53.346;-1.688;2023-05-10T14:13:31;16.50;99.90
28171;DHT22;15458;53.346;-1.688;2023-05-10T14:15:56;16.50;99.90
28171;DHT22;15458;53.346;-1.688;2023-05-10T14:18:24;16.50;99.90
28171;DHT22;15458;53.346;-1.688;2023-05-10T14:20:49;16.40;99.90
28171;DHT22;15458;53.346;-1.688;2023-05-10T14:23:15;16.30;99.90
28171;DHT22;15458;53.346;-1.688;2023-05-10T14:25:41;16.20;99.90
28171;DHT22;15458;53.346;-1.688;2023-05-10T14:28:06;16.10;99.90
28171;DHT22;15458;53.346;-1.688;2023-05-10T14:30:32;16.00;99.90
28171;DHT22;15458;53.346;-1.688;2023-05-10T14:33:00;16.00;99.90
28171;DHT22;15458;53.346;-1.688;2023-05-10T14:35:27;16.00;99.90
28171;DHT22;15458;53.346;-1.688;2023-05-10T14:37:53;16.20;99.90
28171;DHT22;15458;53.346;-1.688;2023-05-10T14:40:18;16.40;99.90
28171;DHT22;15458;53.346;-1.688;2023-05-10T14:42:44;16.50;99.90
28171;DHT22;15458;53.346;-1.688;2023-05-10T14:45:10;16.50;99.90
28171;DHT22;15458;53.346;-1.688;2023-05-10T14:47:37;16.50;99.90
28171;DHT22;15458;53.346;-1.688;2023-05-10T14:50:03;16.30;99.90
28171;DHT22;15458;53.346;-1.688;2023-05-10T14:52:29;16.20;99.90
28171;DHT22;15458;53.346;-1.688;2023-05-10T14:54:54;16.00;99.90
28171;DHT22;15458;53.346;-1.688;2023-05-10T14:57:20;15.90;99.90
28171;DHT22;15458;53.346;-1.688;2023-05-10T14:59:46;15.70;99.90
28171;DHT22;15458;53.346;-1.688;2023-05-10T15:02:11;15.60;99.90
28171;DHT22;15458;53.346;-1.688;2023-05-10T15:04:37;15.50;99.90
28171;DHT22;15458;53.346;-1.688;2023-05-10T15:07:03;15.40;99.90
28171;DHT22;15458;53.346;-1.688;2023-05-10T15:09:29;15.40;99.90
28171;DHT22;15458;53.346;-1.688;2023-05-10T15:11:55;15.40;99.90
28171;DHT22;15458;53.346;-1.688;2023-05-10T15:14:22;15.30;99.90
28171;DHT22;15458;53.346;-1.688;2023-05-10T15:16:47;15.30;99.90
28171;DHT22;15458;53.346;-1.688;2023-05-10T15:19:13;15.30;99.90
28171;DHT22;15458;53.346;-1.688;2023-05-10T15:21:40;15.30;99.90
28171;DHT22;15458;53.346;-1.688;2023-05-10T15:24:08;15.20;99.90
28171;DHT22;15458;53.346;-1.688;2023-05-10T15:26:35;15.20;99.90
28171;DHT22;15458;53.346;-1.688;2023-05-10T15:29:00;15.20;99.90
28171;DHT22;15458;53.346;-1.688;2023-05-10T15:31:26;15.20;99.90
28171;DHT22;15458;53.346;-1.688;2023-05-10T15:33:57;15.20;99.90
28171;DHT22;15458;53.346;-1.688;2023-05-10T15:36:23;15.10;99.90
28171;DHT22;15458;53.346;-1.688;2023-05-10T15:38:49;15.10;99.90
28171;DHT22;15458;53.346;-1.688;2023-05-10T15:41:15;15.20;99.90
28171;DHT22;15458;53.346;-1.688;2023-05-10T15:43:40;15.10;99.90
28171;DHT22;15458;53.346;-1.688;2023-05-10T15:46:07;15.10;99.90
28171;DHT22;15458;53.346;-1.688;2023-05-10T15:48:32;15.10;99.90
28171;DHT22;15458;53.346;-1.688;2023-05-10T15:50:58;15.00;99.90
28171;DHT22;15458;53.346;-1.688;2023-05-10T15:53:24;15.00;99.90
28171;DHT22;15458;53.346;-1.688;2023-05-10T15:55:50;15.10;99.90
28171;DHT22;15458;53.346;-1.688;2023-05-10T15:58:16;15.20;99.90